Terminal Aerodrome Forecast
Issued by NWS

Home | Current Version | Previous Version | Text Only | Print | Product List | Glossary On
Versions: 1 2 3 4 5 6 7 8 9 10 11 12 13 14
000
FTUS46 KMTR 250500
TAFOAK
TAF
KOAK 250534Z 2506/2612 18012KT P6SM FEW015 SCT200
     FM251100 18017G25KT P6SM -RA OVC040
     FM252100 21017KT P6SM -SHRA SCT040 BKN050
     FM260300 26010KT P6SM SCT050 BKN250
     FM260600 27004KT P6SM SCT250=

USA.gov is the U.S. government's official web portal to all federal, state and local government web resources and services.